createdAt,value
2018-06-05T00:02:01.200Z,65.77
2018-06-05T00:04:28.345Z,65.56
2018-06-05T00:06:55.481Z,68.47
2018-06-05T00:09:22.629Z,70.78
2018-06-05T00:11:49.759Z,71.75
2018-06-05T00:14:16.909Z,69.82
2018-06-05T00:16:44.063Z,71.14
2018-06-05T00:19:11.236Z,69.43
2018-06-05T00:21:38.425Z,70.18
2018-06-05T00:24:05.636Z,69.40
2018-06-05T00:26:32.825Z,69.76
2018-06-05T00:28:59.999Z,68.99
2018-06-05T00:31:27.160Z,69.66
2018-06-05T00:33:54.370Z,72.07
2018-06-05T00:36:21.554Z,71.04
2018-06-05T00:38:48.724Z,70.54
2018-06-05T00:41:15.864Z,70.43
2018-06-05T00:43:43.032Z,72.34
2018-06-05T00:46:10.242Z,72.14
2018-06-05T00:48:37.421Z,71.80
2018-06-05T00:51:16.014Z,72.11
2018-06-05T00:53:43.188Z,73.10
2018-06-05T00:56:10.343Z,71.87
2018-06-05T00:58:37.486Z,71.69
2018-06-05T01:01:04.669Z,71.42
2018-06-05T01:03:31.857Z,71.05
2018-06-05T01:05:59.080Z,72.26
2018-06-05T01:08:26.256Z,73.18
2018-06-05T01:10:53.404Z,74.69
2018-06-05T01:13:20.583Z,75.55
2018-06-05T01:15:47.741Z,73.99
2018-06-05T01:18:14.897Z,73.77
2018-06-05T01:20:42.032Z,73.60
2018-06-05T01:23:09.176Z,73.05
2018-06-05T01:25:36.380Z,71.77
2018-06-05T01:28:03.543Z,72.78
2018-06-05T01:30:30.777Z,75.52
2018-06-05T01:32:57.975Z,74.01
2018-06-05T01:35:25.536Z,73.72
2018-06-05T01:37:52.711Z,72.77
2018-06-05T01:40:19.867Z,72.20
2018-06-05T01:42:47.037Z,72.42
2018-06-05T01:45:14.217Z,73.54
2018-06-05T01:47:41.377Z,73.09
2018-06-05T01:50:08.519Z,75.21
2018-06-05T01:52:35.696Z,75.08
2018-06-05T01:55:03.007Z,74.11
2018-06-05T01:57:30.150Z,73.67
2018-06-05T01:59:57.359Z,73.56
2018-06-05T02:02:24.534Z,75.46
2018-06-05T02:04:51.680Z,76.75
2018-06-05T02:07:18.845Z,78.35
2018-06-05T02:09:45.977Z,75.97
2018-06-05T02:12:13.102Z,77.37
2018-06-05T02:14:40.228Z,75.41
2018-06-05T02:17:07.340Z,75.28
2018-06-05T02:19:34.533Z,75.79
2018-06-05T02:22:01.672Z,74.84
2018-06-05T02:24:28.845Z,73.99
2018-06-05T02:26:55.993Z,75.05
2018-06-05T02:29:23.204Z,75.88
2018-06-05T02:31:50.328Z,77.12
2018-06-05T02:34:17.546Z,77.94
2018-06-05T02:36:44.667Z,79.31
2018-06-05T02:39:12.209Z,78.84
2018-06-05T02:41:39.308Z,77.97
2018-06-05T02:44:06.529Z,77.13
2018-06-05T02:46:33.662Z,77.14
2018-06-05T02:49:00.801Z,78.76
2018-06-05T02:51:27.929Z,79.73
2018-06-05T02:53:55.028Z,79.00
2018-06-05T02:56:22.179Z,77.30
2018-06-05T02:58:50.137Z,77.98
2018-06-05T03:01:17.352Z,78.16
2018-06-05T03:03:44.515Z,78.02
2018-06-05T03:06:11.659Z,78.22
2018-06-05T03:08:38.806Z,77.26
2018-06-05T03:11:06.000Z,77.42
2018-06-05T03:13:33.185Z,77.61
2018-06-05T03:16:00.311Z,77.94
2018-06-05T03:18:27.443Z,78.27
2018-06-05T03:20:54.567Z,80.19
2018-06-05T03:23:21.861Z,78.24
2018-06-05T03:25:49.036Z,77.33
2018-06-05T03:28:16.169Z,76.60
2018-06-05T03:30:43.369Z,76.75
2018-06-05T03:33:10.517Z,76.69
2018-06-05T03:35:37.717Z,76.10
2018-06-05T03:38:04.829Z,76.67
2018-06-05T03:40:31.908Z,77.36
2018-06-05T03:42:59.038Z,76.66
2018-06-05T03:45:26.143Z,76.95
2018-06-05T03:47:53.252Z,76.56
2018-06-05T03:50:20.332Z,76.26
2018-06-05T03:52:47.468Z,76.55
2018-06-05T03:55:14.572Z,75.81
2018-06-05T03:57:41.760Z,76.58
2018-06-05T04:00:08.945Z,77.49
2018-06-05T04:02:36.128Z,77.52
2018-06-05T04:05:03.244Z,79.49
2018-06-05T04:07:30.425Z,79.11
2018-06-05T04:09:57.605Z,79.22
2018-06-05T04:12:24.711Z,78.02
2018-06-05T04:14:51.837Z,77.86
2018-06-05T04:17:18.951Z,77.44
2018-06-05T04:19:46.212Z,77.07
2018-06-05T04:22:13.328Z,76.84
2018-06-05T04:24:40.450Z,77.37
2018-06-05T04:27:07.700Z,76.54
2018-06-05T04:29:34.812Z,75.93
2018-06-05T04:32:02.045Z,76.45
2018-06-05T04:34:29.128Z,78.03
2018-06-05T04:36:56.308Z,78.50
2018-06-05T04:39:23.557Z,78.43
2018-06-05T04:41:50.704Z,77.49
2018-06-05T04:44:17.836Z,75.53
2018-06-05T04:46:44.953Z,76.42
2018-06-05T04:49:12.121Z,77.43
2018-06-05T04:51:39.235Z,77.87
2018-06-05T04:54:06.386Z,77.17
2018-06-05T04:56:33.594Z,77.27
2018-06-05T04:59:00.711Z,75.99
2018-06-05T05:01:27.837Z,75.68
2018-06-05T05:03:54.961Z,75.17
2018-06-05T05:06:22.109Z,74.55
2018-06-05T05:08:49.272Z,75.02
2018-06-05T05:11:16.385Z,73.99
2018-06-05T05:13:43.525Z,74.32
2018-06-05T05:16:10.695Z,74.63
2018-06-05T05:18:37.844Z,74.04
2018-06-05T05:21:05.000Z,73.33
2018-06-05T05:23:32.152Z,72.27
2018-06-05T05:25:59.320Z,71.68
2018-06-05T05:28:26.433Z,71.52
2018-06-05T05:30:53.602Z,72.27
2018-06-05T05:33:20.737Z,71.92
2018-06-05T05:35:47.896Z,72.42
2018-06-05T05:38:15.039Z,73.19
2018-06-05T05:40:42.190Z,72.75
2018-06-05T05:43:09.352Z,71.93
2018-06-05T05:45:36.473Z,71.58
2018-06-05T05:48:03.653Z,72.72
2018-06-05T05:50:30.768Z,71.99
2018-06-05T05:52:57.913Z,70.41
2018-06-05T05:55:25.029Z,69.53
2018-06-05T05:57:52.181Z,68.89
2018-06-05T06:00:19.333Z,69.08
2018-06-05T06:02:46.471Z,67.12
2018-06-05T06:05:13.593Z,66.21
2018-06-05T06:07:40.696Z,66.16
2018-06-05T06:10:07.845Z,66.90
2018-06-05T06:12:34.985Z,66.83
2018-06-05T06:15:02.176Z,66.54
2018-06-05T06:17:29.277Z,64.84
2018-06-05T06:19:56.396Z,63.81
2018-06-05T06:22:23.549Z,62.95
2018-06-05T06:24:50.722Z,61.57
2018-06-05T06:27:17.845Z,62.60
2018-06-05T06:29:45.020Z,62.59
2018-06-05T06:32:12.236Z,62.58
2018-06-05T06:34:39.364Z,63.43
2018-06-05T06:37:06.471Z,61.00
2018-06-05T06:39:33.614Z,58.33
2018-06-05T06:42:00.739Z,57.60
2018-06-05T06:44:27.893Z,56.47
2018-06-05T06:46:55.037Z,56.63
2018-06-05T06:49:22.133Z,59.88
2018-06-05T06:51:49.241Z,59.81
2018-06-05T06:54:16.352Z,57.95
2018-06-05T06:56:43.544Z,57.78
2018-06-05T06:59:10.702Z,56.71
2018-06-05T07:01:37.860Z,58.09
2018-06-05T07:04:05.023Z,57.91
2018-06-05T07:06:32.132Z,57.36
2018-06-05T07:08:59.268Z,57.24
2018-06-05T07:11:26.433Z,55.72
2018-06-05T07:13:53.604Z,55.40
2018-06-05T07:16:20.688Z,56.84
2018-06-05T07:18:47.936Z,56.63
2018-06-05T07:21:15.096Z,53.88
2018-06-05T07:23:42.271Z,52.17
2018-06-05T07:26:09.439Z,54.38
2018-06-05T07:28:36.614Z,53.34
2018-06-05T07:31:03.750Z,52.17
2018-06-05T07:33:30.873Z,50.56
2018-06-05T07:35:58.058Z,50.65
2018-06-05T07:38:25.186Z,51.18
2018-06-05T07:40:52.349Z,49.34
2018-06-05T07:43:19.541Z,49.43
2018-06-05T07:45:46.688Z,49.52
2018-06-05T07:48:13.830Z,48.89
2018-06-05T07:50:40.972Z,51.37
2018-06-05T07:53:08.124Z,51.81
2018-06-05T07:55:35.257Z,48.61
2018-06-05T07:58:02.450Z,46.99
2018-06-05T08:00:29.555Z,46.03
2018-06-05T08:02:56.670Z,45.77
2018-06-05T08:05:23.750Z,46.52
2018-06-05T08:07:50.897Z,45.38
2018-06-05T08:10:18.073Z,45.29
2018-06-05T08:12:45.197Z,47.46
2018-06-05T08:15:12.394Z,46.03
2018-06-05T08:17:39.557Z,47.12
2018-06-05T08:20:06.699Z,45.20
2018-06-05T08:22:45.833Z,44.28
2018-06-05T08:25:12.999Z,42.42
2018-06-05T08:27:40.153Z,44.36
2018-06-05T08:30:07.292Z,43.21
2018-06-05T08:32:34.408Z,41.57
2018-06-05T08:35:01.522Z,42.80
2018-06-05T08:37:28.657Z,41.73
2018-06-05T08:39:55.823Z,41.74
2018-06-05T08:42:22.962Z,43.02
2018-06-05T08:44:50.143Z,41.06
2018-06-05T08:47:17.311Z,41.49
2018-06-05T08:49:44.504Z,41.00
2018-06-05T08:52:11.641Z,41.52
2018-06-05T08:54:38.808Z,44.66
2018-06-05T08:57:06.016Z,44.52
2018-06-05T08:59:33.192Z,43.84
2018-06-05T09:02:00.333Z,42.73
2018-06-05T09:04:27.535Z,41.34
2018-06-05T09:06:54.687Z,41.33
2018-06-05T09:09:21.849Z,40.49
2018-06-05T09:11:48.976Z,43.02
2018-06-05T09:14:16.095Z,43.60
2018-06-05T09:16:43.255Z,42.79
2018-06-05T09:19:10.359Z,39.86
2018-06-05T09:21:37.490Z,38.40
2018-06-05T09:24:04.648Z,38.41
2018-06-05T09:26:31.793Z,40.68
2018-06-05T09:28:58.984Z,40.75
2018-06-05T09:31:26.086Z,40.62
2018-06-05T09:33:53.232Z,42.33
2018-06-05T09:36:20.356Z,43.09
2018-06-05T09:38:47.484Z,44.49
2018-06-05T09:41:14.630Z,40.32
2018-06-05T09:43:41.761Z,42.31
2018-06-05T09:46:08.968Z,41.01
2018-06-05T09:48:36.092Z,39.86
2018-06-05T09:51:03.297Z,40.31
2018-06-05T09:53:30.429Z,40.36
2018-06-05T09:55:57.591Z,41.84
2018-06-05T09:58:24.899Z,39.20
2018-06-05T10:00:52.732Z,36.92
2018-06-05T10:03:20.565Z,40.10
2018-06-05T10:05:47.776Z,37.74
2018-06-05T10:08:14.956Z,39.93
2018-06-05T10:10:42.092Z,37.56
2018-06-05T10:13:09.330Z,38.46
2018-06-05T10:15:36.511Z,40.19
2018-06-05T10:18:03.985Z,43.71
2018-06-05T10:20:31.129Z,42.31
2018-06-05T10:22:58.248Z,44.37
2018-06-05T10:25:25.396Z,42.16
2018-06-05T10:27:52.565Z,42.26
2018-06-05T10:30:19.720Z,39.70
2018-06-05T10:32:46.888Z,41.47
2018-06-05T10:35:14.010Z,39.67
2018-06-05T10:37:41.172Z,39.17
2018-06-05T10:40:08.335Z,37.55
2018-06-05T10:42:35.483Z,37.86
2018-06-05T10:45:02.753Z,39.36
2018-06-05T10:47:29.926Z,36.81
2018-06-05T10:49:57.067Z,37.32
2018-06-05T10:52:24.213Z,36.47
2018-06-05T10:54:51.327Z,36.34
2018-06-05T10:57:18.530Z,38.62
2018-06-05T10:59:45.699Z,35.94
2018-06-05T11:02:12.873Z,37.35
2018-06-05T11:04:40.040Z,34.99
2018-06-05T11:07:07.177Z,34.29
2018-06-05T11:09:34.272Z,36.72
2018-06-05T11:12:01.414Z,38.26
2018-06-05T11:14:28.574Z,36.17
2018-06-05T11:16:55.729Z,37.44
2018-06-05T11:19:22.848Z,38.09
2018-06-05T11:21:50.035Z,38.82
2018-06-05T11:24:17.177Z,38.96
2018-06-05T11:26:44.301Z,37.57
2018-06-05T11:29:11.435Z,36.67
2018-06-05T11:31:38.590Z,35.75
2018-06-05T11:34:05.753Z,40.09
2018-06-05T11:36:32.969Z,41.27
2018-06-05T11:39:00.065Z,41.62
2018-06-05T11:41:27.236Z,40.14
2018-06-05T11:43:54.371Z,38.16
2018-06-05T11:46:21.520Z,38.42
2018-06-05T11:48:48.645Z,38.58
2018-06-05T11:51:15.809Z,37.73
2018-06-05T11:53:42.905Z,39.28
2018-06-05T11:56:10.011Z,38.94
2018-06-05T11:58:37.181Z,36.93
2018-06-05T12:01:04.376Z,37.83
2018-06-05T12:03:31.565Z,38.36
2018-06-05T12:05:59.508Z,38.41
2018-06-05T12:08:26.684Z,35.96
2018-06-05T12:10:53.798Z,35.70
2018-06-05T12:13:20.990Z,35.87
2018-06-05T12:15:48.185Z,34.22
2018-06-05T12:18:15.364Z,32.51
2018-06-05T12:20:42.500Z,33.55
2018-06-05T12:23:09.373Z,36.00
2018-06-05T12:25:36.582Z,36.71
2018-06-05T12:28:03.732Z,36.87
2018-06-05T12:30:30.907Z,38.20
2018-06-05T12:32:58.082Z,37.67
2018-06-05T12:35:25.256Z,38.96
2018-06-05T12:37:52.417Z,34.99
2018-06-05T12:40:19.596Z,35.70
2018-06-05T12:42:46.728Z,32.27
2018-06-05T12:45:13.892Z,32.98
2018-06-05T12:47:41.051Z,34.31
2018-06-05T12:50:08.168Z,33.68
2018-06-05T12:52:35.321Z,33.01
2018-06-05T12:55:02.492Z,33.73
2018-06-05T12:57:29.669Z,34.54
2018-06-05T12:59:58.846Z,36.22
2018-06-05T13:02:26.052Z,36.74
2018-06-05T13:04:53.231Z,37.23
2018-06-05T13:07:20.408Z,36.21
2018-06-05T13:09:47.541Z,37.56
2018-06-05T13:12:14.681Z,38.86
2018-06-05T13:14:41.880Z,39.04
2018-06-05T13:17:09.013Z,37.59
2018-06-05T13:19:36.185Z,38.79
2018-06-05T13:22:03.388Z,39.34
2018-06-05T13:24:30.501Z,37.15
2018-06-05T13:27:02.810Z,37.97
2018-06-05T13:29:29.952Z,37.58
2018-06-05T13:31:57.100Z,35.58
2018-06-05T13:34:24.256Z,36.63
2018-06-05T13:36:51.363Z,35.31
2018-06-05T13:39:18.633Z,36.55
2018-06-05T13:41:45.746Z,35.83
2018-06-05T13:44:12.888Z,37.29
2018-06-05T13:46:40.026Z,36.66
2018-06-05T13:49:07.149Z,35.91
2018-06-05T13:51:34.233Z,35.81
2018-06-05T13:54:01.371Z,35.87
2018-06-05T13:56:28.532Z,34.29
2018-06-05T13:58:55.676Z,35.79
2018-06-05T14:01:22.806Z,34.60
2018-06-05T14:03:49.969Z,34.97
2018-06-05T14:06:17.132Z,36.21
2018-06-05T14:08:44.299Z,35.04
2018-06-05T14:11:11.464Z,34.94
2018-06-05T14:13:38.617Z,34.56
2018-06-05T14:16:05.764Z,33.36
2018-06-05T14:18:32.866Z,33.73
2018-06-05T14:21:00.007Z,35.04
2018-06-05T14:23:27.209Z,35.20
2018-06-05T14:25:54.353Z,33.43
2018-06-05T14:28:21.516Z,34.61
2018-06-05T14:30:48.691Z,35.11
2018-06-05T14:33:15.830Z,37.17
2018-06-05T14:35:42.956Z,35.09
2018-06-05T14:38:10.124Z,35.10
2018-06-05T14:40:37.271Z,35.58
2018-06-05T14:43:04.393Z,34.69
2018-06-05T14:45:31.544Z,35.83
2018-06-05T14:47:58.688Z,36.40
2018-06-05T14:50:25.833Z,35.55
2018-06-05T14:52:52.996Z,35.91
2018-06-05T14:55:20.189Z,36.32
2018-06-05T14:57:47.385Z,36.25
2018-06-05T15:00:14.492Z,37.70
2018-06-05T15:02:41.617Z,35.67
2018-06-05T15:05:08.791Z,35.01
2018-06-05T15:07:35.942Z,36.03
2018-06-05T15:10:03.228Z,36.18
2018-06-05T15:12:30.407Z,37.45
2018-06-05T15:14:57.563Z,38.08
2018-06-05T15:17:24.754Z,38.16
2018-06-05T15:19:51.880Z,38.06
2018-06-05T15:22:19.022Z,35.63
2018-06-05T15:24:46.161Z,37.16
2018-06-05T15:27:13.297Z,37.43
2018-06-05T15:29:40.439Z,37.29
2018-06-05T15:32:07.590Z,35.73
2018-06-05T15:34:34.916Z,35.69
2018-06-05T15:37:02.124Z,36.26
2018-06-05T15:39:29.381Z,35.97
2018-06-05T15:41:56.674Z,37.13
2018-06-05T15:44:25.682Z,36.20
2018-06-05T15:46:53.983Z,37.13
2018-06-05T15:49:21.194Z,36.91
2018-06-05T15:51:48.320Z,37.46
2018-06-05T15:54:15.547Z,35.98
2018-06-05T15:56:42.688Z,37.10
2018-06-05T15:59:09.861Z,36.27
2018-06-05T16:01:37.003Z,38.70
2018-06-05T16:04:04.496Z,37.66
2018-06-05T16:06:31.602Z,36.42
2018-06-05T16:08:58.800Z,35.85
2018-06-05T16:11:25.950Z,36.17
2018-06-05T16:13:53.110Z,37.94
2018-06-05T16:16:20.292Z,37.84
2018-06-05T16:18:47.472Z,37.14
2018-06-05T16:21:14.608Z,38.19
2018-06-05T16:23:41.747Z,36.00
2018-06-05T16:26:08.893Z,34.96
2018-06-05T16:28:36.019Z,38.25
2018-06-05T16:31:03.190Z,38.09
2018-06-05T16:33:30.361Z,39.33
2018-06-05T16:35:57.552Z,38.86
2018-06-05T16:38:24.749Z,38.82
2018-06-05T16:40:51.957Z,39.92
2018-06-05T16:43:19.101Z,40.44
2018-06-05T16:45:46.349Z,39.58
2018-06-05T16:48:13.522Z,39.56
2018-06-05T16:50:40.677Z,40.63
2018-06-05T16:53:07.847Z,40.88
2018-06-05T16:55:35.000Z,40.44
2018-06-05T16:58:02.152Z,41.17
2018-06-05T17:00:29.305Z,40.96
2018-06-05T17:02:56.457Z,41.32
2018-06-05T17:05:23.648Z,41.78
2018-06-05T17:07:50.802Z,42.08
2018-06-05T17:10:17.941Z,40.71
2018-06-05T17:12:45.191Z,41.08
2018-06-05T17:15:12.416Z,41.68
2018-06-05T17:17:39.557Z,40.64
2018-06-05T17:20:06.713Z,41.41
2018-06-05T17:22:33.886Z,40.84
2018-06-05T17:25:01.061Z,41.90
2018-06-05T17:27:28.286Z,39.88
2018-06-05T17:29:55.363Z,38.95
2018-06-05T17:32:22.589Z,38.49
2018-06-05T17:34:49.794Z,38.52
2018-06-05T17:37:17.013Z,39.45
2018-06-05T17:39:44.177Z,39.81
2018-06-05T17:42:11.334Z,39.97
2018-06-05T17:44:38.536Z,41.89
2018-06-05T17:47:05.709Z,41.91
2018-06-05T17:49:32.860Z,42.36
2018-06-05T17:52:00.025Z,42.43
2018-06-05T17:54:27.234Z,43.65
2018-06-05T17:56:54.386Z,43.10
2018-06-05T17:59:21.558Z,43.95
2018-06-05T18:01:48.736Z,43.93
2018-06-05T18:04:15.926Z,43.88
2018-06-05T18:06:43.088Z,43.61
2018-06-05T18:09:10.237Z,44.32
2018-06-05T18:11:37.431Z,44.98
2018-06-05T18:14:04.550Z,44.99
2018-06-05T18:16:31.702Z,45.52
2018-06-05T18:18:58.881Z,45.55
2018-06-05T18:21:26.091Z,45.63
2018-06-05T18:23:53.381Z,46.09
2018-06-05T18:26:20.533Z,47.39
2018-06-05T18:28:47.646Z,46.69
2018-06-05T18:31:14.800Z,47.29
2018-06-05T18:33:41.970Z,47.78
2018-06-05T18:36:09.193Z,48.17
2018-06-05T18:38:36.337Z,49.03
2018-06-05T18:41:03.525Z,47.59
2018-06-05T18:43:30.693Z,48.28
2018-06-05T18:45:57.830Z,48.88
2018-06-05T18:48:24.999Z,49.51
2018-06-05T18:50:52.156Z,49.27
2018-06-05T18:53:26.164Z,49.48
2018-06-05T18:55:53.432Z,50.01
2018-06-05T18:58:20.592Z,49.92
2018-06-05T19:00:47.777Z,51.05
2018-06-05T19:03:15.028Z,52.72
2018-06-05T19:05:42.221Z,52.32
2018-06-05T19:08:09.374Z,54.33
2018-06-05T19:10:36.522Z,54.12
2018-06-05T19:13:03.672Z,54.62
2018-06-05T19:15:30.865Z,55.08
2018-06-05T19:17:58.078Z,55.20
2018-06-05T19:20:25.259Z,55.23
2018-06-05T19:22:52.366Z,55.91
2018-06-05T19:25:19.589Z,55.70
2018-06-05T19:27:46.763Z,56.24
2018-06-05T19:30:14.016Z,55.89
2018-06-05T19:32:41.204Z,55.78
2018-06-05T19:35:08.341Z,55.80
2018-06-05T19:37:35.489Z,56.32
2018-06-05T19:40:02.670Z,56.41
2018-06-05T19:42:29.845Z,56.94
2018-06-05T19:44:56.992Z,57.34
2018-06-05T19:47:24.149Z,57.85
2018-06-05T19:49:51.340Z,58.23
2018-06-05T19:52:18.493Z,58.45
2018-06-05T19:54:45.701Z,57.36
2018-06-05T19:57:13.891Z,57.88
2018-06-05T19:59:41.068Z,58.37
2018-06-05T20:02:08.225Z,58.23
2018-06-05T20:17:39.997Z,58.56
2018-06-05T20:20:07.260Z,58.86
2018-06-05T20:22:34.449Z,58.80
2018-06-05T20:25:01.650Z,59.38
2018-06-05T20:27:28.840Z,59.75
2018-06-05T20:29:55.978Z,59.65
2018-06-05T20:32:23.176Z,59.69
2018-06-05T20:34:50.373Z,60.35
2018-06-05T20:37:17.556Z,59.94
2018-06-05T20:39:44.728Z,60.49
2018-06-05T20:42:11.884Z,60.81
2018-06-05T20:44:39.061Z,61.55
2018-06-05T20:47:06.376Z,61.50
2018-06-05T20:49:33.578Z,60.33
2018-06-05T20:52:00.815Z,60.33
2018-06-05T20:54:27.934Z,61.28
2018-06-05T20:56:55.152Z,60.68
2018-06-05T20:59:22.340Z,60.99
2018-06-05T21:01:49.516Z,61.66
2018-06-05T21:04:16.854Z,61.73
2018-06-05T21:06:43.977Z,60.54
2018-06-05T21:09:11.167Z,61.34
2018-06-05T21:11:38.387Z,61.14
2018-06-05T21:14:05.504Z,62.07
2018-06-05T21:16:32.636Z,62.33
2018-06-05T21:18:59.778Z,63.02
2018-06-05T21:21:26.960Z,63.46
2018-06-05T21:23:54.086Z,64.11
2018-06-05T21:26:21.248Z,64.11
2018-06-05T21:28:48.395Z,64.10
2018-06-05T21:31:15.554Z,63.77
2018-06-05T21:33:42.813Z,63.31
2018-06-05T21:36:09.939Z,62.84
2018-06-05T21:38:37.124Z,63.37
2018-06-05T21:41:04.293Z,63.13
2018-06-05T21:43:31.412Z,64.43
2018-06-05T21:45:58.571Z,64.49
2018-06-05T21:48:25.720Z,64.46
2018-06-05T21:50:52.847Z,65.71
2018-06-05T21:53:19.983Z,65.18
2018-06-05T21:55:47.129Z,65.26
2018-06-05T21:58:14.368Z,65.64
2018-06-05T22:00:41.568Z,64.21
2018-06-05T22:03:08.717Z,65.52
2018-06-05T22:05:35.866Z,66.32
2018-06-05T22:08:03.015Z,66.40
2018-06-05T22:10:30.183Z,66.61
2018-06-05T22:12:57.293Z,66.94
2018-06-05T22:15:24.416Z,66.56
2018-06-05T22:17:51.593Z,66.75
2018-06-05T22:20:18.753Z,67.26
2018-06-05T22:22:45.908Z,66.87
2018-06-05T22:25:13.047Z,66.92
2018-06-05T22:27:40.179Z,66.50
2018-06-05T22:30:07.284Z,67.07
2018-06-05T22:32:34.427Z,66.95
2018-06-05T22:35:01.657Z,67.28
2018-06-05T22:37:28.799Z,67.07
2018-06-05T22:39:55.927Z,68.39
2018-06-05T22:42:23.037Z,67.76
2018-06-05T22:44:50.200Z,67.08
2018-06-05T22:47:17.336Z,66.99
2018-06-05T22:49:44.476Z,67.80
2018-06-05T22:52:11.585Z,67.35
2018-06-05T22:54:38.713Z,66.69
2018-06-05T22:57:05.913Z,67.16
2018-06-05T22:59:33.045Z,67.70
2018-06-05T23:02:00.226Z,68.30
2018-06-05T23:04:27.353Z,67.89
2018-06-05T23:06:54.507Z,68.20
2018-06-05T23:09:21.605Z,69.61
2018-06-05T23:11:48.714Z,69.30
2018-06-05T23:14:15.823Z,69.12
2018-06-05T23:16:43.032Z,69.75
2018-06-05T23:19:10.150Z,70.31
2018-06-05T23:21:37.297Z,70.43
2018-06-05T23:24:04.481Z,71.18
2018-06-05T23:26:31.688Z,71.08
2018-06-05T23:28:58.822Z,70.97
2018-06-05T23:31:25.972Z,71.19
2018-06-05T23:33:53.232Z,71.35
2018-06-05T23:36:20.321Z,70.25
2018-06-05T23:38:47.481Z,70.94
2018-06-05T23:41:14.580Z,71.03
2018-06-05T23:43:41.724Z,72.32
2018-06-05T23:46:08.835Z,71.63
2018-06-05T23:48:35.964Z,72.05
2018-06-05T23:51:03.075Z,72.53
2018-06-05T23:53:30.216Z,71.77
2018-06-05T23:55:57.372Z,71.69
2018-06-05T23:58:24.500Z,71.70
